Latest Weather Observations for Morawa Airport

IDW60801

Issued at 10:35 am WST Wednesday 3 September 2014 (issued every 30 minutes, with the page automatically refreshed every 10 minutes)

About weather observations | Map of weather stations | Latest weather observations for WA | Other Formats
Station Details ID: 008296 Name: MORAWA AIRPORT Lat: -29.20 Lon: 116.02 Height: 271.4 m
Data from the previous 72 hours. | See also: Recent months at Morawa Airport
Date/Time
WST
Temp
°C
App
Temp
°C
Dew
Point
Rel
Hum
%
Delta-T
°C
Wind Press
QNH
hPa
Press
MSL
hPa
Rain
since 9 am
mm
Dir
 
Spd
km/h
Gust
km/h
Spd
kts
Gust
kts
03/10:30am 18.8 15.5 9.6 55 4.9 ESE 17 24 9 13 1020.6 1020.3 0.0
03/10:00am 18.2 14.5 9.3 56 4.7 ESE 19 24 10 13 1020.8 1020.5 0.0
03/09:30am 18.3 15.1 9.9 58 4.5 SE 17 24 9 13 1021.1 1020.8 0.0
03/09:00am 17.0 13.2 9.2 60 4.1 SE 19 26 10 14 1020.8 1020.5 0.0
03/08:30am 16.1 13.2 9.5 65 3.5 SE 15 22 8 12 1020.9 1020.6 0.0
03/08:00am 15.4 12.6 10.0 70 2.8 SSE 15 20 8 11 1020.8 1020.5 0.0
03/07:30am 14.8 13.7 10.0 73 2.5 SE 6 9 3 5 1020.6 1020.3 0.0
03/07:00am 14.5 13.4 10.5 77 2.1 ESE 7 11 4 6 1019.8 1019.5 0.0
03/06:30am 14.4 11.9 11.0 80 1.8 S 15 20 8 11 1019.0 1018.6 0.0
03/06:00am 14.4 13.6 11.2 81 1.7 S 6 9 3 5 1020.0 1019.7 0.0
03/05:30am 14.5 13.7 10.9 79 1.9 SSE 6 11 3 6 1019.4 1019.1 0.0
03/05:00am 14.4 14.7 11.0 80 1.8 CALM 0 0 0 0 1019.3 1019.0 0.0
03/04:30am 14.4 13.4 11.0 80 1.8 S 7 9 4 5 1018.6 1018.2 0.0
03/04:00am 14.9 14.8 10.9 77 2.1 S 2 4 1 2 1019.3 1019.0 0.0
03/03:30am 15.0 14.5 10.8 76 2.3 SSW 4 9 2 5 1019.1 1018.8 0.0
03/03:00am 15.0 14.6 11.2 78 2.1 S 4 6 2 3 1019.0 1018.6 0.0
03/02:30am 15.2 13.4 11.0 76 2.3 S 11 13 6 7 1019.1 1018.8 0.0
03/02:00am 15.2 14.4 11.2 77 2.2 SSW 6 7 3 4 1019.5 1019.2 0.0
03/01:30am 15.2 14.5 11.4 78 2.1 SSW 6 7 3 4 1019.5 1019.2 0.0
03/01:00am 15.3 15.3 11.3 77 2.2 SSW 2 4 1 2 1019.8 1019.5 0.0
03/12:30am 15.5 15.2 11.5 77 2.2 SSW 4 6 2 3 1019.9 1019.6 0.0
03/12:00am 15.8 15.1 11.4 75 2.4 S 6 9 3 5 1019.8 1019.5 0.0
 
Date/Time
WST
Temp
°C
App
Temp
°C
Dew
Point
Rel
Hum
%
Delta-T
°C
Wind Press
QNH
hPa
Press
MSL
hPa
Rain
since 9 am
mm
Dir
 
Spd
km/h
Gust
km/h
Spd
kts
Gust
kts
02/11:30pm 16.0 15.2 11.2 73 2.6 SSW 6 9 3 5 1019.8 1019.5 0.0
02/11:00pm 16.6 15.7 11.3 71 2.9 SSW 7 9 4 5 1020.2 1019.9 0.0
02/10:30pm 16.5 15.8 11.4 72 2.8 SSW 6 7 3 4 1020.1 1019.8 0.0
02/10:00pm 16.9 16.3 11.6 71 2.9 SSW 6 7 3 4 1020.1 1019.8 0.0
02/09:30pm 17.6 16.8 11.6 68 3.3 SSW 7 9 4 5 1019.9 1019.6 0.0
02/09:00pm 18.1 17.2 12.5 70 3.1 SSW 9 13 5 7 1020.0 1019.7 0.0
02/08:30pm 18.2 17.7 13.9 76 2.5 SSW 9 17 5 9 1019.7 1019.4 0.0
02/08:00pm 18.5 18.0 13.8 74 2.7 SW 9 15 5 8 1019.5 1019.2 0.0
02/07:30pm 18.8 17.3 13.2 70 3.2 SW 13 19 7 10 1019.2 1018.9 0.0
02/07:00pm 19.4 17.5 11.9 62 4.2 SW 13 20 7 11 1018.8 1018.4 0.0
02/06:30pm 20.1 17.4 10.5 54 5.3 SW 15 24 8 13 1018.1 1017.7 0.0
02/06:00pm 20.7 18.2 11.1 54 5.3 WSW 15 22 8 12 1017.7 1017.3 0.0
02/05:30pm 21.9 18.0 7.0 38 7.7 WSW 17 22 9 12 1017.4 1017.0 0.0
02/05:00pm 22.5 18.9 6.7 36 8.2 WSW 15 26 8 14 1016.9 1016.6 0.0
02/04:30pm 23.1 18.9 5.5 32 9.0 WSW 17 24 9 13 1016.8 1016.5 0.0
02/04:00pm 23.0 18.4 5.4 32 8.9 WSW 19 32 10 17 1016.1 1015.8 0.0
02/03:30pm 23.2 17.6 5.6 32 9.0 WSW 24 39 13 21 1016.0 1015.7 0.0
02/03:00pm 22.8 17.4 8.1 39 7.8 WSW 26 41 14 22 1015.7 1015.3 0.0
02/02:30pm 25.3 20.0 7.0 31 9.7 W 24 33 13 18 1015.3 1014.9 0.0
02/02:00pm 26.3 20.9 4.7 25 11.1 W 22 30 12 16 1015.0 1014.6 0.0
02/01:30pm 27.9 22.8 4.2 22 12.2 WNW 20 32 11 17 1014.9 1014.5 0.0
02/01:00pm 27.1 22.7 2.9 21 12.1 NNW 15 20 8 11 1015.2 1014.8 0.0
02/12:30pm 27.1 23.1 2.9 21 12.1 NNW 13 20 7 11 1015.0 1014.6 0.0
02/12:00pm 25.8 22.0 3.7 24 11.1 N 13 22 7 12 1015.9 1015.6 0.0
02/11:30am 25.2 21.1 4.3 26 10.6 N 15 20 8 11 1016.5 1016.2 0.0
02/11:00am 23.6 19.6 5.0 30 9.4 N 15 22 8 12 1017.0 1016.7 0.0
02/10:30am 23.6 19.2 5.0 30 9.4 N 17 22 9 12 1017.2 1016.9 0.0
02/10:00am 23.2 19.3 5.2 31 9.1 NNE 15 22 8 12 1017.0 1016.7 0.0
02/09:30am 21.4 17.3 6.1 37 7.8 NNE 17 24 9 13 1016.9 1016.6 0.0
02/09:00am 20.1 17.1 7.5 44 6.5 NNE 13 19 7 10 1017.2 1016.9 0.0
02/08:30am 19.7 17.6 8.1 47 6.1 NNE 9 13 5 7 1017.5 1017.1 0.0
02/08:00am 16.7 15.3 8.9 60 4.1 NNE 6 7 3 4 1017.6 1017.2 0.0
02/07:30am 15.4 15.3 9.5 68 3.1 CALM 0 4 0 2 1017.2 1016.9 0.0
02/07:00am 13.0 12.6 9.8 81 1.7 ENE 2 6 1 3 1017.0 1016.7 0.0
02/06:30am 12.7 12.6 9.5 81 1.6 CALM 0 0 0 0 1017.1 1016.8 0.0
02/06:00am 13.4 12.6 9.6 78 2.0 NNE 4 6 2 3 1016.6 1016.3 0.0
02/05:30am 13.3 12.5 9.7 79 1.9 N 4 4 2 2 1016.6 1016.3 0.0
02/05:00am 14.1 13.8 8.5 69 2.9 CALM 0 4 0 2 1016.2 1015.9 0.0
02/04:30am 14.3 13.6 8.7 69 2.9 NNE 2 4 1 2 1015.9 1015.6 0.0
02/04:00am 15.4 13.8 8.2 62 3.7 NNE 6 9 3 5 1015.7 1015.3 0.0
02/03:30am 13.8 13.4 9.6 76 2.2 E 2 6 1 3 1015.7 1015.3 0.0
02/03:00am 13.9 13.2 9.9 77 2.1 E 4 4 2 2 1015.9 1015.6 0.0
02/02:30am 13.7 14.0 10.9 83 1.5 CALM 0 0 0 0 1016.0 1015.7 0.0
02/02:00am 13.7 13.9 10.7 82 1.6 CALM 0 0 0 0 1016.2 1015.9 0.0
02/01:30am 13.7 13.8 10.3 80 1.8 CALM 0 0 0 0 1016.6 1016.3 0.0
02/01:00am 14.5 13.8 10.1 75 2.3 SSE 4 4 2 2 1017.0 1016.7 0.0
02/12:30am 14.4 14.0 9.8 74 2.4 SSE 2 4 1 2 1017.4 1017.0 0.0
02/12:00am 15.3 14.5 9.7 69 2.9 SSE 4 6 2 3 1017.6 1017.2 0.0
 
Date/Time
WST
Temp
°C
App
Temp
°C
Dew
Point
Rel
Hum
%
Delta-T
°C
Wind Press
QNH
hPa
Press
MSL
hPa
Rain
since 9 am
mm
Dir
 
Spd
km/h
Gust
km/h
Spd
kts
Gust
kts
01/11:30pm 16.1 15.3 9.8 66 3.3 S 4 4 2 2 1018.4 1018.0 0.0
01/11:00pm 16.1 15.0 10.0 67 3.2 S 6 7 3 4 1018.6 1018.2 0.0
01/10:30pm 16.3 15.1 9.7 65 3.5 SSE 6 7 3 4 1018.6 1018.2 0.0
01/10:00pm 16.9 15.8 9.8 63 3.8 SSE 6 9 3 5 1018.7 1018.3 0.0
01/09:30pm 16.8 16.0 9.7 63 3.8 SE 4 6 2 3 1018.7 1018.3 0.0
01/09:00pm 16.9 15.7 9.6 62 3.9 SSE 6 7 3 4 1018.7 1018.3 0.0
01/08:30pm 17.6 16.5 9.8 60 4.2 SSE 6 6 3 3 1018.9 1018.5 0.0
01/08:00pm 17.4 16.5 9.3 59 4.3 SSE 4 6 2 3 1018.6 1018.2 0.0
01/07:30pm 17.8 16.5 9.2 57 4.5 SE 6 7 3 4 1018.3 1017.9 0.0
01/07:00pm 18.7 17.2 9.2 54 5.0 SE 7 11 4 6 1018.3 1017.9 0.0
01/06:30pm 19.9 18.4 9.2 50 5.7 SE 7 13 4 7 1018.5 1018.1 0.0
01/06:00pm 20.2 18.6 7.9 45 6.4 E 6 7 3 4 1018.3 1017.9 0.0
01/05:30pm 21.5 19.7 7.3 40 7.4 E 6 7 3 4 1017.8 1017.4 0.0
01/05:00pm 22.1 19.9 6.3 36 8.1 ENE 7 11 4 6 1017.8 1017.4 0.0
01/04:30pm 22.3 20.4 6.5 36 8.2 E 6 11 3 6 1017.8 1017.4 0.0
01/04:00pm 22.4 19.8 6.2 35 8.3 NE 9 17 5 9 1017.9 1017.5 0.0
01/03:30pm 22.4 19.4 6.2 35 8.3 NNE 11 22 6 12 1017.9 1017.5 0.0
01/03:00pm 22.5 19.6 6.7 36 8.2 ENE 11 17 6 9 1017.8 1017.4 0.0
01/02:30pm 22.1 18.8 6.3 36 8.1 ENE 13 19 7 10 1018.0 1017.6 0.0
01/02:00pm 22.3 18.3 6.5 36 8.1 ENE 17 26 9 14 1018.0 1017.6 0.0
01/01:30pm 22.3 18.7 6.9 37 8.0 ENE 15 22 8 12 1018.6 1018.2 0.0
01/01:00pm 21.9 18.4 7.0 38 7.7 ENE 15 22 8 12 1018.9 1018.5 0.0
01/12:30pm 20.3 16.3 6.6 41 7.0 E 17 26 9 14 1019.6 1019.3 0.0
01/12:00pm 20.6 17.1 7.2 42 6.9 ENE 15 28 8 15 1020.0 1019.7 0.0
01/11:30am 19.7 15.7 6.8 43 6.6 NE 17 24 9 13 1020.6 1020.3 0.0
01/11:00am 18.7 14.4 6.9 46 6.0 ENE 19 24 10 13 1021.0 1020.7 0.0
01/10:30am 18.2 14.7 7.3 49 5.6 ENE 15 22 8 12 1021.5 1021.1 0.0
01/10:00am 16.8 12.9 7.2 53 4.8 ENE 17 26 9 14 1021.7 1021.3 0.0
01/09:30am 15.5 11.8 7.8 60 3.9 ENE 17 24 9 13 1021.4 1021.0 0.0
01/09:00am 15.2 11.1 8.0 62 3.6 ENE 19 26 10 14 1021.3 1020.9 0.0
01/08:30am 14.8 12.0 8.7 67 3.1 E 13 17 7 9 1021.9 1021.5 0.0
01/08:00am 13.0 10.8 9.4 79 1.8 ESE 11 17 6 9 1021.5 1021.1 0.0
01/07:30am 11.7 10.9 10.9 95 0.4 SE 6 7 3 4 1021.6 1021.5 0.0
01/07:00am 10.6 9.0 10.1 97 0.3 SE 9 11 5 6 1021.4 1021.2 0.0
01/06:30am 10.2 8.9 9.9 98 0.2 SE 7 9 4 5 1021.3 1021.1 0.0
01/06:00am 10.1 8.7 9.5 96 0.3 SSE 7 7 4 4 1020.7 1020.6 0.0
01/05:30am 10.5 9.4 9.9 96 0.3 SSE 6 7 3 4 1020.5 1020.4 0.0
01/05:00am 10.7 9.6 9.9 95 0.4 SSE 6 7 3 4 1020.5 1020.4 0.0
01/04:30am 10.7 9.9 9.5 92 0.6 SSE 4 7 2 4 1020.2 1020.1 0.0
01/04:00am 11.4 10.7 10.0 91 0.7 SSE 4 7 2 4 1020.5 1020.4 0.0
01/03:30am 11.7 11.0 10.1 90 0.8 SSE 4 7 2 4 1020.1 1020.0 0.0
01/03:00am 11.4 10.3 10.0 91 0.7 SSE 6 9 3 5 1020.2 1020.1 0.0
01/02:30am 11.6 10.9 10.0 90 0.8 SSE 4 6 2 3 1020.3 1020.2 0.0
01/02:00am 11.9 11.3 10.3 90 0.8 SSE 4 4 2 2 1020.3 1020.2 0.0
01/01:30am 12.3 11.4 10.5 89 0.9 SSE 6 7 3 4 1020.5 1020.4 0.0
01/01:00am 12.1 11.9 10.5 90 0.8 SSE 2 4 1 2 1019.9 1019.8 0.0
01/12:30am 12.1 11.2 10.7 91 0.7 SSE 6 9 3 5 1019.9 1019.8 0.0
01/12:00am 12.4 11.4 10.3 87 1.1 S 6 7 3 4 1020.6 1020.5 0.0
 
Date/Time
WST
Temp
°C
App
Temp
°C
Dew
Point
Rel
Hum
%
Delta-T
°C
Wind Press
QNH
hPa
Press
MSL
hPa
Rain
since 9 am
mm
Dir
 
Spd
km/h
Gust
km/h
Spd
kts
Gust
kts
31/11:30pm 12.8 11.6 10.3 85 1.3 S 7 9 4 5 1020.3 1020.2 0.0
31/11:00pm 13.2 11.9 10.0 81 1.7 SSW 7 9 4 5 1021.1 1021.0 0.0
31/10:30pm 13.1 11.8 9.9 81 1.7 S 7 9 4 5 1020.6 1020.5 0.0
31/10:00pm 13.3 11.5 9.4 77 2.0 SSW 9 11 5 6 1021.6 1021.5 0.0
31/09:30pm 13.9 11.7 9.3 74 2.4 SSW 11 13 6 7 1021.1 1021.0 0.0
31/09:00pm 14.3 12.0 9.1 71 2.7 SSW 11 15 6 8 1020.8 1020.7 0.0
31/08:30pm 14.6 12.8 9.4 71 2.7 SSW 9 15 5 8 1020.7 1020.6 0.0
31/08:00pm 14.6 12.9 10.0 74 2.4 SSW 9 11 5 6 1020.2 1020.1 0.0
31/07:30pm 14.8 13.0 9.6 71 2.7 SW 9 13 5 7 1020.2 1020.1 0.0
31/07:00pm 15.3 13.9 9.4 68 3.1 SSW 7 11 4 6 1020.0 1019.9 0.0
31/06:30pm 16.3 13.6 9.0 62 3.8 SSW 13 19 7 10 1019.8 1019.7 0.0
31/06:00pm 17.3 14.8 8.4 56 4.6 SSW 11 15 6 8 1019.7 1019.6 0.0
31/05:30pm 18.3 16.7 8.6 53 5.1 SW 7 13 4 7 1019.4 1019.3 0.0
31/05:00pm 18.5 16.1 8.5 52 5.2 SSW 11 15 6 8 1019.4 1019.3 0.0
31/04:30pm 18.8 15.7 8.7 52 5.3 SSW 15 20 8 11 1018.8 1018.7 0.0
31/04:00pm 19.4 17.8 8.7 50 5.6 S 7 13 4 7 1018.4 1018.3 0.0
31/03:30pm 19.3 17.7 8.6 50 5.6 SW 7 13 4 7 1018.7 1018.6 0.0
31/03:00pm 19.0 16.2 8.6 51 5.5 SW 13 20 7 11 1018.5 1018.4 0.0
31/02:30pm 19.7 17.2 8.4 48 6.0 SW 11 19 6 10 1018.7 1018.6 0.0
31/02:00pm 19.5 18.3 7.9 47 6.0 SW 4 9 2 5 1018.3 1018.2 0.0
31/01:30pm 20.0 18.1 9.0 49 5.9 S 9 19 5 10 1018.5 1018.4 0.0
31/01:00pm 19.1 16.4 7.5 47 6.0 SSW 11 19 6 10 1018.9 1018.8 0.0
31/12:30pm 19.5 16.9 7.6 46 6.2 SW 11 19 6 10 1019.2 1019.1 0.0
31/12:00pm 19.0 16.4 7.8 48 5.8 SSW 11 24 6 13 1019.6 1019.5 0.0
31/11:30am 18.2 17.0 8.2 52 5.2 SW 4 11 2 6 1019.9 1019.8 0.0
31/11:00am 17.6 16.2 9.0 57 4.5 S 6 11 3 6 1020.2 1020.1 0.0

Other Formats:

Comma delimited format used in spreadsheet applications
http://www.bom.gov.au/fwo/IDW60801/IDW60801.94417.axf

JavaScript Object Notation format (JSON) in row-major order
http://www.bom.gov.au/fwo/IDW60801/IDW60801.94417.json